Terminal Aerodrome Forecast
Issued by NWS Wichita, KS

Home | Current Version | Previous Version | Text Only | Print | Product List | Glossary On
Versions: 1 2 3 4 5 6 7 8 9 10 11 12 13 14 15 16 17 18 19 20 21 22 23 24 25 26 27 28
000
FTUS43 KICT 171145
TAFICT
TAF
KICT 171145Z 1712/1812 10007KT P6SM OVC070
     FM171800 13013KT P6SM OVC050
     FM172300 12009KT P6SM OVC013
     FM180200 12009KT 5SM -RASN OVC007=

USA.gov is the U.S. government's official web portal to all federal, state and local government web resources and services.